Terminal Aerodrome Forecast
Issued by NWS

Home | Current Version | Previous Version | Text Only | Print | Product List | Glossary On
Versions: 1 2 3 4 5 6 7 8 9 10 11 12 13 14
000
FTUS45 KPIH 061100
TAFSUN
TAF
KSUN 061120Z 0612/0712 32009KT P6SM SCT140
     FM061900 11009KT P6SM SKC
     FM070400 31008KT P6SM SKC
      AMD LTD TO CLD VIS AND WIND TIL 061400=

USA.gov is the U.S. government's official web portal to all federal, state and local government web resources and services.